Time;durP1;ratioP1;P1;durP2;ratioP2;P2;SDS_P1;SDS_P2;PMS_P1;PMS_P2;Temp;Humidity;BMP_temperature;BMP_pressure;BME280_temperature;BME280_humidity;BME280_pressure;Samples;Min_cycle;Max_cycle;Signal;HPM_P1;HPM_P2
2022/07/19 17:49:59;;;;;;;2.97;2.15;;;;;;;;;;5145166;27;20939;-66
2022/07/19 17:52:25;;;;;;;4.85;2.47;;;;;;;;;;5122407;27;20134;-67
2022/07/19 17:54:51;;;;;;;5.57;2.55;;;;;;;;;;5126303;27;20056;-67
2022/07/19 17:57:18;;;;;;;5.53;2.55;;;;;;;;;;5124762;27;20450;-66
2022/07/19 17:59:45;;;;;;;6.90;2.10;;;;;;;;;;5124649;27;20052;-67
2022/07/19 18:02:11;;;;;;;10.55;2.80;;;;;;;;;;5132427;27;20062;-66
2022/07/19 18:04:58;;;;;;;13.55;2.90;;;;;;;;;;5125223;27;20047;-66
2022/07/19 18:07:24;;;;;;;5.88;2.50;;;;;;;;;;5125789;27;20050;-67
2022/07/19 18:09:50;;;;;;;4.70;2.40;;;;;;;;;;5126145;27;20178;-68
2022/07/19 18:12:17;;;;;;;8.35;2.47;;;;;;;;;;5124834;27;20521;-69
2022/07/19 18:14:43;;;;;;;5.15;2.78;;;;;;;;;;5127530;27;20056;-69
2022/07/19 18:17:09;;;;;;;4.93;2.15;;;;;;;;;;5124750;27;20055;-69
2022/07/19 18:19:36;;;;;;;3.90;2.45;;;;;;;;;;5121701;27;20094;-69
2022/07/19 18:22:03;;;;;;;4.78;2.88;;;;;;;;;;5127110;27;20059;-68
2022/07/19 18:24:29;;;;;;;8.57;2.55;;;;;;;;;;5126864;27;20052;-69
2022/07/19 18:26:56;;;;;;;3.03;2.50;;;;;;;;;;5126516;27;20059;-68
2022/07/19 18:29:25;;;;;;;4.00;2.47;;;;;;;;;;5126576;27;20051;-71
2022/07/19 18:31:52;;;;;;;10.00;2.47;;;;;;;;;;5126668;27;20058;-68
2022/07/19 18:34:18;;;;;;;5.78;2.30;;;;;;;;;;5126454;27;20487;-68
2022/07/19 18:36:53;;;;;;;5.70;2.58;;;;;;;;;;5126984;27;20051;-68
2022/07/19 18:39:20;;;;;;;4.57;2.30;;;;;;;;;;5126594;27;20055;-68
2022/07/19 18:41:46;;;;;;;6.32;2.40;;;;;;;;;;5126345;27;20466;-67
2022/07/19 18:44:12;;;;;;;6.05;2.28;;;;;;;;;;5125460;27;20056;-67
2022/07/19 18:46:39;;;;;;;5.28;2.35;;;;;;;;;;5124863;27;20131;-67
2022/07/19 18:49:05;;;;;;;7.28;2.35;;;;;;;;;;5128132;27;20055;-67
2022/07/19 18:51:33;;;;;;;9.10;2.88;;;;;;;;;;5126786;27;20131;-68
2022/07/19 18:54:00;;;;;;;12.10;2.95;;;;;;;;;;5126568;27;20650;-68
2022/07/19 18:56:26;;;;;;;6.78;3.53;;;;;;;;;;5124041;27;20059;-68
2022/07/19 18:58:53;;;;;;;7.13;3.05;;;;;;;;;;5125313;27;20519;-68
2022/07/19 19:01:19;;;;;;;6.10;3.08;;;;;;;;;;5121871;27;20059;-68
2022/07/19 19:03:46;;;;;;;10.38;3.00;;;;;;;;;;5107405;28;20102;-67
2022/07/19 19:06:13;;;;;;;7.25;2.78;;;;;;;;;;5106892;27;20071;-68
2022/07/19 19:08:40;;;;;;;8.00;3.25;;;;;;;;;;5111307;27;20087;-68
2022/07/19 19:11:08;;;;;;;6.88;2.97;;;;;;;;;;5112752;27;20154;-68
2022/07/19 19:13:35;;;;;;;7.70;3.15;;;;;;;;;;5110747;27;20054;-67
2022/07/19 19:16:02;;;;;;;7.88;3.17;;;;;;;;;;5112340;27;20055;-69
2022/07/19 19:18:28;;;;;;;7.05;2.85;;;;;;;;;;5108352;27;20143;-68
2022/07/19 19:20:59;;;;;;;10.80;3.22;;;;;;;;;;5112067;27;20500;-68
2022/07/19 19:23:26;;;;;;;5.85;2.88;;;;;;;;;;5112236;27;20465;-68
2022/07/19 19:25:52;;;;;;;7.43;2.95;;;;;;;;;;5112294;27;20054;-68
2022/07/19 19:28:18;;;;;;;5.72;3.38;;;;;;;;;;5110744;27;20059;-68
2022/07/19 19:30:45;;;;;;;6.50;3.00;;;;;;;;;;5112527;27;20640;-68
2022/07/19 19:33:12;;;;;;;8.80;3.17;;;;;;;;;;5110968;27;20515;-69
2022/07/19 19:35:39;;;;;;;10.57;3.67;;;;;;;;;;5111591;27;20143;-67
2022/07/19 19:38:06;;;;;;;3.35;2.88;;;;;;;;;;5110288;27;20056;-68
2022/07/19 19:40:32;;;;;;;5.13;3.28;;;;;;;;;;5104496;28;20067;-67
2022/07/19 19:42:59;;;;;;;7.10;3.25;;;;;;;;;;5105222;27;20513;-68
2022/07/19 19:45:26;;;;;;;4.85;2.80;;;;;;;;;;5111869;27;20059;-68
2022/07/19 19:47:52;;;;;;;7.70;3.63;;;;;;;;;;5107534;27;20052;-68
2022/07/19 19:50:19;;;;;;;6.57;2.67;;;;;;;;;;5110405;27;20147;-68
2022/07/19 19:52:45;;;;;;;5.43;2.85;;;;;;;;;;5107143;27;20045;-69
2022/07/19 19:55:12;;;;;;;5.03;3.47;;;;;;;;;;5111867;28;20570;-68
2022/07/19 19:57:39;;;;;;;6.72;3.25;;;;;;;;;;5109669;28;20649;-69
2022/07/19 20:00:06;;;;;;;12.70;3.35;;;;;;;;;;5104900;27;20059;-69
2022/07/19 20:02:32;;;;;;;6.68;3.60;;;;;;;;;;5102087;28;20052;-67
2022/07/19 20:04:59;;;;;;;5.75;3.55;;;;;;;;;;5109820;27;20060;-68
2022/07/19 20:07:25;;;;;;;8.90;4.15;;;;;;;;;;5111912;27;20062;-68
2022/07/19 20:09:51;;;;;;;4.85;3.63;;;;;;;;;;5109098;28;20576;-67
2022/07/19 20:12:18;;;;;;;6.32;3.92;;;;;;;;;;5110350;27;20055;-67
2022/07/19 20:14:44;;;;;;;7.40;4.20;;;;;;;;;;5111020;27;20155;-67
2022/07/19 20:17:10;;;;;;;9.18;3.92;;;;;;;;;;5107707;27;20308;-67
2022/07/19 20:19:37;;;;;;;14.07;3.50;;;;;;;;;;5106639;28;20048;-71
2022/07/19 20:22:04;;;;;;;8.57;3.90;;;;;;;;;;5120757;27;20058;-68
2022/07/19 20:24:30;;;;;;;10.68;4.07;;;;;;;;;;5109621;27;20139;-69
2022/07/19 20:26:56;;;;;;;7.97;3.45;;;;;;;;;;5110344;27;20083;-70
2022/07/19 20:29:23;;;;;;;5.85;3.10;;;;;;;;;;5109813;27;20055;-69
2022/07/19 20:31:49;;;;;;;8.00;3.83;;;;;;;;;;5110807;27;20052;-69
2022/07/19 20:34:16;;;;;;;9.52;3.30;;;;;;;;;;5107836;28;20175;-70
2022/07/19 20:36:42;;;;;;;7.15;3.50;;;;;;;;;;5107454;28;20606;-69
2022/07/19 20:39:09;;;;;;;10.88;4.13;;;;;;;;;;5114393;27;20400;-69
2022/07/19 20:41:35;;;;;;;7.55;3.10;;;;;;;;;;5103330;27;20059;-69
2022/07/19 20:44:02;;;;;;;8.73;3.45;;;;;;;;;;5109731;27;20052;-70
2022/07/19 20:46:32;;;;;;;7.53;3.67;;;;;;;;;;5111017;27;20099;-71
2022/07/19 20:48:59;;;;;;;7.78;3.45;;;;;;;;;;5100914;27;20056;-69
2022/07/19 20:51:25;;;;;;;7.40;3.80;;;;;;;;;;5107061;28;20056;-69
2022/07/19 20:53:51;;;;;;;7.20;3.50;;;;;;;;;;5106320;28;20685;-69
2022/07/19 20:56:18;;;;;;;14.80;4.38;;;;;;;;;;5104415;28;20503;-69
2022/07/19 20:58:45;;;;;;;9.45;3.83;;;;;;;;;;5105392;28;20060;-72
2022/07/19 21:01:12;;;;;;;6.80;3.65;;;;;;;;;;5107602;28;20055;-69
2022/07/19 21:03:38;;;;;;;8.98;4.03;;;;;;;;;;5111340;27;20129;-71
2022/07/19 21:06:04;;;;;;;4.38;3.22;;;;;;;;;;5108900;27;20131;-69
2022/07/19 21:08:31;;;;;;;9.25;3.10;;;;;;;;;;5100253;28;20367;-70
2022/07/19 21:10:57;;;;;;;6.15;3.90;;;;;;;;;;5101411;27;20085;-69
2022/07/19 21:13:24;;;;;;;9.00;3.33;;;;;;;;;;5100793;27;20060;-69
2022/07/19 21:15:50;;;;;;;9.32;3.58;;;;;;;;;;5100912;28;20055;-69
2022/07/19 21:18:17;;;;;;;8.00;3.58;;;;;;;;;;5103083;28;20506;-69
2022/07/19 21:20:43;;;;;;;8.32;3.00;;;;;;;;;;5097851;27;20133;-70
2022/07/19 21:23:10;;;;;;;9.25;3.40;;;;;;;;;;5108064;28;20052;-70
2022/07/19 21:25:37;;;;;;;6.88;3.45;;;;;;;;;;5108012;28;20059;-69
2022/07/19 21:28:04;;;;;;;7.43;4.00;;;;;;;;;;5108131;27;20058;-69
2022/07/19 21:30:30;;;;;;;9.23;4.07;;;;;;;;;;5107776;27;20052;-70
2022/07/19 21:32:57;;;;;;;4.75;3.55;;;;;;;;;;5107912;27;20138;-69
2022/07/19 21:35:29;;;;;;;10.43;3.83;;;;;;;;;;5094447;28;20052;-69
2022/07/19 21:37:56;;;;;;;9.23;3.63;;;;;;;;;;5108994;27;20179;-70
2022/07/19 21:40:22;;;;;;;8.50;3.30;;;;;;;;;;5094226;27;20156;-69
2022/07/19 21:42:49;;;;;;;4.47;3.60;;;;;;;;;;5106576;27;20058;-69
2022/07/19 21:45:15;;;;;;;5.85;4.20;;;;;;;;;;5109241;27;20154;-71
2022/07/19 21:47:42;;;;;;;9.27;3.70;;;;;;;;;;5107083;27;20495;-70
2022/07/19 21:50:09;;;;;;;9.18;4.70;;;;;;;;;;5108467;27;20419;-70
2022/07/19 21:52:36;;;;;;;8.88;4.30;;;;;;;;;;5109143;28;20266;-69
2022/07/19 21:55:02;;;;;;;8.88;4.22;;;;;;;;;;5109252;27;20079;-69
2022/07/19 21:57:29;;;;;;;9.02;3.80;;;;;;;;;;5108829;27;20052;-70
2022/07/19 21:59:55;;;;;;;10.55;3.88;;;;;;;;;;5109395;27;20066;-69
2022/07/19 22:02:25;;;;;;;10.80;3.90;;;;;;;;;;5106055;28;20135;-69
2022/07/19 22:04:51;;;;;;;7.45;4.07;;;;;;;;;;5109342;27;20109;-69
2022/07/19 22:07:18;;;;;;;7.65;3.92;;;;;;;;;;5110476;27;20513;-69
2022/07/19 22:09:44;;;;;;;7.15;4.20;;;;;;;;;;5109993;27;20052;-68
2022/07/19 22:12:10;;;;;;;10.85;4.50;;;;;;;;;;5102851;27;20492;-69
2022/07/19 22:14:37;;;;;;;8.50;3.95;;;;;;;;;;5108130;28;20155;-69
2022/07/19 22:17:03;;;;;;;7.65;4.00;;;;;;;;;;5087771;28;20051;-71
2022/07/19 22:19:29;;;;;;;5.30;3.40;;;;;;;;;;5096595;28;20075;-69
2022/07/19 22:21:56;;;;;;;9.57;4.10;;;;;;;;;;5108237;27;20060;-69
2022/07/19 22:24:22;;;;;;;9.25;3.95;;;;;;;;;;5108909;27;20048;-69
2022/07/19 22:26:48;;;;;;;5.93;3.53;;;;;;;;;;5109694;28;20093;-68
2022/07/19 22:29:15;;;;;;;7.07;3.80;;;;;;;;;;5108897;28;20471;-69
2022/07/19 22:31:41;;;;;;;8.07;3.67;;;;;;;;;;5109881;27;20056;-70
2022/07/19 22:34:08;;;;;;;9.65;4.28;;;;;;;;;;5109559;27;20142;-69
2022/07/19 22:36:34;;;;;;;9.10;3.80;;;;;;;;;;5112639;27;20132;-69
2022/07/19 22:39:01;;;;;;;7.97;4.35;;;;;;;;;;5110504;27;20574;-69
2022/07/19 22:41:27;;;;;;;8.70;3.78;;;;;;;;;;5110960;28;20570;-70
2022/07/19 22:43:54;;;;;;;9.77;3.65;;;;;;;;;;5112137;28;20093;-69
2022/07/19 22:46:20;;;;;;;11.32;4.10;;;;;;;;;;5111786;28;20056;-68
2022/07/19 22:48:46;;;;;;;7.60;4.38;;;;;;;;;;5110566;27;20521;-68
2022/07/19 22:51:13;;;;;;;7.07;3.85;;;;;;;;;;5110775;28;20560;-69
2022/07/19 22:53:40;;;;;;;9.65;4.18;;;;;;;;;;5113797;27;20079;-70
2022/07/19 22:56:10;;;;;;;6.93;3.72;;;;;;;;;;5113221;27;20106;-69
2022/07/19 22:58:36;;;;;;;10.07;4.05;;;;;;;;;;5111489;28;20139;-70
2022/07/19 23:01:02;;;;;;;9.38;3.92;;;;;;;;;;5110420;28;20052;-70
2022/07/19 23:03:29;;;;;;;5.82;3.38;;;;;;;;;;5113393;28;20051;-68
2022/07/19 23:05:55;;;;;;;7.75;4.32;;;;;;;;;;5110825;27;20105;-67
2022/07/19 23:08:22;;;;;;;9.32;4.13;;;;;;;;;;5111000;27;20527;-68
2022/07/19 23:10:49;;;;;;;7.78;3.85;;;;;;;;;;5109485;28;20134;-68
2022/07/19 23:13:15;;;;;;;9.57;4.25;;;;;;;;;;5112426;27;20500;-67
2022/07/19 23:15:42;;;;;;;7.03;4.13;;;;;;;;;;5111515;27;20058;-67
2022/07/19 23:18:08;;;;;;;12.32;4.32;;;;;;;;;;5111489;27;20502;-68
2022/07/19 23:20:34;;;;;;;5.57;4.20;;;;;;;;;;5112033;27;20059;-69
2022/07/19 23:23:01;;;;;;;6.38;4.03;;;;;;;;;;5111406;27;20079;-68
2022/07/19 23:25:27;;;;;;;6.47;4.53;;;;;;;;;;5109751;27;20052;-68
2022/07/19 23:27:53;;;;;;;8.00;4.53;;;;;;;;;;5111766;28;20054;-68
2022/07/19 23:30:20;;;;;;;9.40;4.97;;;;;;;;;;5108339;27;20051;-69
2022/07/19 23:32:46;;;;;;;9.85;4.30;;;;;;;;;;5109861;28;20086;-68
2022/07/19 23:35:12;;;;;;;6.32;4.10;;;;;;;;;;5113562;27;20060;-69
2022/07/19 23:37:39;;;;;;;7.85;4.70;;;;;;;;;;5112160;27;20131;-69
2022/07/19 23:40:06;;;;;;;9.02;4.20;;;;;;;;;;5110721;27;20056;-68
2022/07/19 23:42:32;;;;;;;10.27;5.15;;;;;;;;;;5109512;27;20622;-68
2022/07/19 23:44:59;;;;;;;6.65;4.22;;;;;;;;;;5102913;27;20059;-69
2022/07/19 23:47:26;;;;;;;6.32;4.00;;;;;;;;;;5102263;28;20584;-70
2022/07/19 23:49:52;;;;;;;9.00;4.97;;;;;;;;;;5111441;28;20064;-69
2022/07/19 23:52:18;;;;;;;9.45;3.97;;;;;;;;;;5110772;27;20143;-68
2022/07/19 23:54:45;;;;;;;7.10;4.38;;;;;;;;;;5109900;27;20063;-68
2022/07/19 23:57:11;;;;;;;9.00;4.22;;;;;;;;;;5106228;28;20522;-69
2022/07/19 23:59:37;;;;;;;8.05;3.95;;;;;;;;;;5099208;28;20052;-68
